createdAt,value
2023-05-04T00:00:26.330Z,101793.59
2023-05-04T00:02:53.396Z,101794.66
2023-05-04T00:05:20.521Z,101787.88
2023-05-04T00:07:47.629Z,101780.19
2023-05-04T00:10:14.589Z,101780.41
2023-05-04T00:12:42.362Z,101777.81
2023-05-04T00:15:09.571Z,101781.78
2023-05-04T00:17:36.807Z,101780.72
2023-05-04T00:20:04.614Z,101780.66
2023-05-04T00:22:31.863Z,101772.25
2023-05-04T00:24:58.822Z,101772.16
2023-05-04T00:27:28.992Z,101768.56
2023-05-04T00:29:56.369Z,101773.31
2023-05-04T00:32:23.479Z,101765.25
2023-05-04T00:34:50.944Z,101766.97
2023-05-04T00:37:17.899Z,101763.75
2023-05-04T00:39:44.842Z,101760.63
2023-05-04T00:42:12.119Z,101756.66
2023-05-04T00:44:41.465Z,101762.59
2023-05-04T00:47:09.295Z,101756.47
2023-05-04T00:49:36.594Z,101756.91
2023-05-04T00:52:04.747Z,101758.38
2023-05-04T00:54:32.950Z,101752.25
2023-05-04T00:56:59.999Z,101749.00
2023-05-04T00:59:28.007Z,101747.00
2023-05-04T01:01:54.951Z,101756.72
2023-05-04T01:04:22.145Z,101742.44
2023-05-04T01:07:04.811Z,101742.81
2023-05-04T01:09:57.741Z,101746.91
2023-05-04T01:12:52.924Z,101742.88
2023-05-04T01:15:21.474Z,101741.06
2023-05-04T01:17:48.439Z,101727.19
2023-05-04T01:20:15.563Z,101731.44
2023-05-04T01:22:43.283Z,101728.75
2023-05-04T01:25:11.548Z,101730.50
2023-05-04T01:27:57.085Z,101741.44
2023-05-04T01:30:41.199Z,101744.09
2023-05-04T01:33:09.339Z,101739.88
2023-05-04T01:35:37.203Z,101737.31
2023-05-04T01:38:04.230Z,101734.75
2023-05-04T01:40:31.291Z,101732.81
2023-05-04T01:42:58.375Z,101736.94
2023-05-04T01:45:25.397Z,101727.88
2023-05-04T01:47:52.383Z,101733.31
2023-05-04T01:50:19.427Z,101724.84
2023-05-04T01:52:46.432Z,101724.88
2023-05-04T01:55:13.433Z,101721.22
2023-05-04T01:57:40.462Z,101713.13
2023-05-04T02:00:08.378Z,101707.66
2023-05-04T02:02:35.394Z,101713.69
2023-05-04T02:05:02.441Z,101707.22
2023-05-04T02:07:29.452Z,101713.22
2023-05-04T02:09:58.324Z,101714.09
2023-05-04T02:12:25.385Z,101708.03
2023-05-04T02:14:55.002Z,101705.72
2023-05-04T02:17:21.977Z,101714.75
2023-05-04T02:19:48.948Z,101713.03
2023-05-04T02:22:16.214Z,101707.59
2023-05-04T02:24:44.377Z,101702.94
2023-05-04T02:27:11.429Z,101699.81
2023-05-04T02:29:38.913Z,101699.19
2023-05-04T02:32:06.156Z,101698.09
2023-05-04T02:34:35.261Z,101711.16
2023-05-04T02:37:02.332Z,101704.75
2023-05-04T02:39:32.224Z,101705.22
2023-05-04T02:41:59.189Z,101699.19
2023-05-04T02:44:26.197Z,101699.03
2023-05-04T02:46:53.135Z,101688.09
2023-05-04T02:49:20.117Z,101692.34
2023-05-04T02:51:47.444Z,101683.50
2023-05-04T02:54:14.421Z,101692.22
2023-05-04T02:56:41.472Z,101679.31
2023-05-04T02:59:08.531Z,101691.84
2023-05-04T03:01:35.516Z,101693.59
2023-05-04T03:04:03.008Z,101687.75
2023-05-04T03:06:30.597Z,101696.44
2023-05-04T03:08:58.655Z,101686.28
2023-05-04T03:11:25.855Z,101676.31
2023-05-04T03:13:52.927Z,101678.78
2023-05-04T03:16:21.108Z,101681.50
2023-05-04T03:21:35.632Z,101673.75
2023-05-04T03:24:02.617Z,101676.31
2023-05-04T03:26:29.519Z,101665.75
2023-05-04T03:28:56.554Z,101675.72
2023-05-04T03:31:23.549Z,101681.50
2023-05-04T03:33:50.630Z,101677.28
2023-05-04T03:36:17.666Z,101672.53
2023-05-04T03:38:45.030Z,101673.81
2023-05-04T03:41:12.000Z,101673.47
2023-05-04T03:43:39.100Z,101661.31
2023-05-04T03:46:06.188Z,101663.53
2023-05-04T03:48:33.250Z,101656.13
2023-05-04T03:51:00.461Z,101654.31
2023-05-04T03:53:27.518Z,101656.94
2023-05-04T03:55:54.512Z,101650.81
2023-05-04T03:58:21.472Z,101644.19
2023-05-04T04:00:48.692Z,101645.34
2023-05-04T04:03:15.842Z,101646.97
2023-05-04T04:05:42.932Z,101642.00
2023-05-04T04:08:09.947Z,101638.81
2023-05-04T04:10:37.170Z,101635.41
2023-05-04T04:13:04.211Z,101636.13
2023-05-04T04:15:31.386Z,101639.53
2023-05-04T04:18:01.623Z,101627.34
2023-05-04T04:20:28.652Z,101629.50
2023-05-04T04:22:55.614Z,101623.06
2023-05-04T04:25:23.285Z,101622.00
2023-05-04T04:27:50.409Z,101631.69
2023-05-04T04:30:21.807Z,101624.47
2023-05-04T04:32:49.582Z,101627.69
2023-05-04T04:35:16.761Z,101623.41
2023-05-04T04:37:43.743Z,101617.16
2023-05-04T04:40:11.539Z,101617.25
2023-05-04T04:42:38.525Z,101624.94
2023-05-04T04:45:06.519Z,101625.66
2023-05-04T04:47:33.968Z,101620.69
2023-05-04T04:50:01.029Z,101622.66
2023-05-04T04:52:28.150Z,101609.63
2023-05-04T04:54:55.193Z,101613.97
2023-05-04T04:57:22.252Z,101614.94
2023-05-04T04:59:49.467Z,101605.16
2023-05-04T05:02:16.415Z,101614.50
2023-05-04T05:04:43.454Z,101615.13
2023-05-04T05:07:10.518Z,101615.41
2023-05-04T05:09:38.434Z,101617.00
2023-05-04T05:12:06.067Z,101619.63
2023-05-04T05:14:33.333Z,101611.50
2023-05-04T05:17:00.466Z,101610.09
2023-05-04T05:19:27.900Z,101619.72
2023-05-04T05:21:55.187Z,101609.38
2023-05-04T05:24:22.191Z,101607.13
2023-05-04T05:26:49.088Z,101608.50
2023-05-04T05:29:16.048Z,101616.75
2023-05-04T05:31:42.959Z,101603.59
2023-05-04T05:34:09.875Z,101612.06
2023-05-04T05:36:36.904Z,101610.00
2023-05-04T05:39:04.345Z,101592.38
2023-05-04T05:41:31.320Z,101603.50
2023-05-04T05:43:58.770Z,101606.78
2023-05-04T05:46:26.022Z,101602.09
2023-05-04T05:48:52.973Z,101599.75
2023-05-04T05:51:20.260Z,101600.25
2023-05-04T05:53:47.208Z,101606.31
2023-05-04T05:56:14.899Z,101600.22
2023-05-04T05:58:42.247Z,101605.13
2023-05-04T06:01:09.317Z,101604.34
2023-05-04T06:03:36.535Z,101617.22
2023-05-04T06:06:03.668Z,101616.38
2023-05-04T06:08:31.195Z,101612.56
2023-05-04T06:10:58.140Z,101604.38
2023-05-04T06:13:26.942Z,101607.41
2023-05-04T06:15:54.857Z,101611.31
2023-05-04T06:18:22.895Z,101612.50
2023-05-04T06:20:49.884Z,101616.28
2023-05-04T06:23:30.670Z,101609.56
2023-05-04T06:25:57.817Z,101610.28
2023-05-04T06:28:24.811Z,101609.25
2023-05-04T06:30:52.106Z,101610.94
2023-05-04T06:33:19.379Z,101606.16
2023-05-04T06:35:46.337Z,101605.13
2023-05-04T06:38:13.265Z,101599.03
2023-05-04T06:40:41.104Z,101594.22
2023-05-04T06:43:08.101Z,101597.50
2023-05-04T06:45:39.413Z,101593.16
2023-05-04T06:48:09.350Z,101590.72
2023-05-04T06:50:42.472Z,101582.88
2023-05-04T06:53:23.905Z,101581.16
2023-05-04T06:55:51.514Z,101570.50
2023-05-04T06:58:20.006Z,101581.84
2023-05-04T07:00:47.101Z,101574.06
2023-05-04T07:03:14.177Z,101562.88
2023-05-04T07:05:41.144Z,101567.19
2023-05-04T07:08:09.809Z,101568.25
2023-05-04T07:10:36.761Z,101569.06
2023-05-04T07:13:03.865Z,101566.91
2023-05-04T07:15:30.990Z,101556.53
2023-05-04T07:17:57.951Z,101558.19
2023-05-04T07:20:26.394Z,101548.25
2023-05-04T07:22:57.766Z,101555.16
2023-05-04T07:25:26.205Z,101546.50
2023-05-04T07:27:54.012Z,101543.38
2023-05-04T07:30:22.139Z,101546.75
2023-05-04T07:32:49.138Z,101549.97
2023-05-04T07:35:16.347Z,101551.34
2023-05-04T07:37:44.713Z,101548.56
2023-05-04T07:40:14.658Z,101541.44
2023-05-04T07:42:42.157Z,101534.66
2023-05-04T07:45:10.299Z,101534.19
2023-05-04T07:47:37.479Z,101547.75
2023-05-04T07:50:05.361Z,101534.25
2023-05-04T07:52:33.261Z,101531.81
2023-05-04T07:55:00.350Z,101530.13
2023-05-04T07:57:27.438Z,101524.31
2023-05-04T07:59:55.975Z,101522.53
2023-05-04T08:02:23.337Z,101507.34
2023-05-04T08:04:50.533Z,101514.41
2023-05-04T08:07:17.644Z,101508.63
2023-05-04T08:09:44.767Z,101504.28
2023-05-04T08:12:12.367Z,101504.66
2023-05-04T08:14:40.610Z,101495.31
2023-05-04T08:17:07.738Z,101493.50
2023-05-04T08:19:34.943Z,101495.06
2023-05-04T08:22:02.532Z,101487.25
2023-05-04T08:24:30.636Z,101503.22
2023-05-04T08:27:07.013Z,101493.72
2023-05-04T08:29:36.318Z,101496.75
2023-05-04T08:32:03.488Z,101494.56
2023-05-04T08:34:30.542Z,101482.63
2023-05-04T08:36:58.368Z,101486.69
2023-05-04T08:39:25.369Z,101473.25
2023-05-04T08:41:52.472Z,101476.56
2023-05-04T08:44:19.567Z,101477.03
2023-05-04T08:46:54.174Z,101466.84
2023-05-04T08:49:22.864Z,101454.16
2023-05-04T08:51:51.233Z,101456.59
2023-05-04T08:54:19.079Z,101461.88
2023-05-04T08:56:49.592Z,101437.69
2023-05-04T08:59:22.141Z,101453.78
2023-05-04T09:01:59.705Z,101449.88
2023-05-04T09:04:29.187Z,101437.34
2023-05-04T09:06:57.890Z,101434.91
2023-05-04T09:09:29.179Z,101445.16
2023-05-04T09:11:56.289Z,101442.75
2023-05-04T09:14:32.335Z,101432.59
2023-05-04T09:17:00.702Z,101438.78
2023-05-04T09:19:33.488Z,101428.81
2023-05-04T09:22:17.681Z,101415.53
2023-05-04T09:24:46.472Z,101409.84
2023-05-04T09:27:18.573Z,101416.19
2023-05-04T09:29:54.402Z,101420.00
2023-05-04T09:32:21.445Z,101405.34
2023-05-04T09:34:53.126Z,101407.25
2023-05-04T09:37:21.357Z,101393.44
2023-05-04T09:39:55.192Z,101387.34
2023-05-04T09:42:24.023Z,101390.38
2023-05-04T09:45:03.584Z,101380.28
2023-05-04T09:47:38.720Z,101394.88
2023-05-04T09:50:22.452Z,101390.94
2023-05-04T09:52:50.658Z,101399.00
2023-05-04T09:55:19.820Z,101399.84
2023-05-04T09:57:49.140Z,101406.41
2023-05-04T10:00:18.278Z,101393.69
2023-05-04T10:02:47.283Z,101385.75
2023-05-04T10:05:17.708Z,101372.16
2023-05-04T10:07:45.917Z,101373.84
2023-05-04T10:10:14.521Z,101377.94
2023-05-04T10:12:41.582Z,101370.63
2023-05-04T10:15:10.985Z,101377.66
2023-05-04T10:18:25.719Z,101364.69
2023-05-04T10:21:01.469Z,101356.53
2023-05-04T10:24:01.939Z,101357.66
2023-05-04T10:27:06.440Z,101358.75
2023-05-04T10:29:34.223Z,101356.31
2023-05-04T10:32:01.753Z,101353.31
2023-05-04T10:34:34.096Z,101340.88
2023-05-04T10:37:04.163Z,101338.59
2023-05-04T10:39:34.115Z,101338.41
2023-05-04T10:42:05.683Z,101336.63
2023-05-04T10:44:55.046Z,101345.22
2023-05-04T10:47:32.597Z,101332.25
2023-05-04T10:50:08.885Z,101329.53
2023-05-04T10:52:54.068Z,101324.09
2023-05-04T10:55:22.318Z,101314.25
2023-05-04T10:57:57.233Z,101315.47
2023-05-04T11:00:36.682Z,101314.47
2023-05-04T11:03:04.558Z,101307.44
2023-05-04T11:05:47.072Z,101315.00
2023-05-04T11:08:22.309Z,101295.59
2023-05-04T11:11:10.089Z,101290.50
2023-05-04T11:13:47.347Z,101290.81
2023-05-04T11:16:23.282Z,101298.00
2023-05-04T11:18:50.390Z,101262.25
2023-05-04T11:21:26.214Z,101271.72
2023-05-04T11:24:00.198Z,101264.03
2023-05-04T11:26:28.783Z,101269.03
2023-05-04T11:28:55.868Z,101257.75
2023-05-04T11:31:22.851Z,101245.47
2023-05-04T11:33:54.836Z,101239.50
2023-05-04T11:36:23.033Z,101229.06
2023-05-04T11:38:50.952Z,101214.56
2023-05-04T11:41:17.977Z,101204.19
2023-05-04T11:43:46.559Z,101190.78
2023-05-04T11:46:14.467Z,101196.41
2023-05-04T11:48:41.665Z,101196.69
2023-05-04T11:51:08.694Z,101193.63
2023-05-04T11:53:40.706Z,101195.44
2023-05-04T11:56:09.769Z,101212.69
2023-05-04T11:58:37.528Z,101202.16
2023-05-04T12:01:04.730Z,101208.13
2023-05-04T12:03:53.293Z,101210.50
2023-05-04T12:06:33.234Z,101207.97
2023-05-04T12:09:06.046Z,101202.50
2023-05-04T12:11:34.402Z,101213.47
2023-05-04T12:14:15.126Z,101199.16
2023-05-04T12:16:43.190Z,101203.09
2023-05-04T12:19:13.150Z,101197.50
2023-05-04T12:22:09.937Z,101190.84
2023-05-04T12:24:36.981Z,101178.56
2023-05-04T12:27:04.974Z,101180.63
2023-05-04T12:29:32.012Z,101188.16
2023-05-04T12:31:59.027Z,101175.66
2023-05-04T12:34:26.000Z,101188.44
2023-05-04T12:36:53.137Z,101189.13
2023-05-04T12:39:20.899Z,101174.44
2023-05-04T12:41:47.839Z,101166.41
2023-05-04T12:44:14.864Z,101171.25
2023-05-04T12:46:42.720Z,101167.63
2023-05-04T12:49:11.101Z,101160.56
2023-05-04T12:51:38.150Z,101159.25
2023-05-04T12:54:05.269Z,101153.09
2023-05-04T12:56:33.795Z,101157.09
2023-05-04T12:59:00.906Z,101148.75
2023-05-04T13:01:27.904Z,101142.97
2023-05-04T13:03:54.927Z,101135.16
2023-05-04T13:06:21.911Z,101130.53
2023-05-04T13:08:48.865Z,101130.88
2023-05-04T13:11:20.068Z,101119.34
2023-05-04T13:13:47.153Z,101112.19
2023-05-04T13:16:14.293Z,101114.34
2023-05-04T13:18:41.277Z,101116.25
2023-05-04T13:21:08.360Z,101116.38
2023-05-04T13:23:35.399Z,101118.50
2023-05-04T13:26:02.355Z,101102.53
2023-05-04T13:28:29.392Z,101112.22
2023-05-04T13:30:56.465Z,101110.31
2023-05-04T13:33:29.375Z,101100.91
2023-05-04T13:35:58.461Z,101090.38
2023-05-04T13:38:25.985Z,101096.06
2023-05-04T13:40:52.901Z,101090.84
2023-05-04T13:43:20.708Z,101094.50
2023-05-04T13:45:48.393Z,101094.09
2023-05-04T13:48:15.388Z,101068.38
2023-05-04T13:50:42.718Z,101068.44
2023-05-04T13:53:12.745Z,101072.41
2023-05-04T13:55:39.689Z,101068.16
2023-05-04T13:58:06.822Z,101059.13
2023-05-04T14:00:33.769Z,101064.16
2023-05-04T14:03:00.936Z,101060.22
2023-05-04T14:05:27.977Z,101054.59
2023-05-04T14:07:54.932Z,101049.88
2023-05-04T14:10:22.050Z,101055.59
2023-05-04T14:12:49.108Z,101044.97
2023-05-04T14:15:16.819Z,101051.97
2023-05-04T14:17:43.896Z,101051.78
2023-05-04T14:20:11.373Z,101047.72
2023-05-04T14:22:41.165Z,101046.44
2023-05-04T14:25:09.105Z,101054.06
2023-05-04T14:27:36.605Z,101048.50
2023-05-04T14:30:04.628Z,101047.41
2023-05-04T14:32:31.634Z,101038.84
2023-05-04T14:35:07.995Z,101033.06
2023-05-04T14:37:37.625Z,101034.16
2023-05-04T14:40:10.623Z,101027.50
2023-05-04T14:42:38.570Z,101028.38
2023-05-04T14:45:07.853Z,101022.78
2023-05-04T14:47:36.884Z,101017.97
2023-05-04T14:50:05.327Z,101032.53
2023-05-04T14:52:32.498Z,101022.25
2023-05-04T14:54:59.484Z,101018.84
2023-05-04T14:57:26.542Z,101015.44
2023-05-04T14:59:53.473Z,101010.19
2023-05-04T15:02:20.992Z,101018.38
2023-05-04T15:04:48.270Z,101019.00
2023-05-04T15:07:16.584Z,101014.63
2023-05-04T15:09:43.659Z,101011.69
2023-05-04T15:12:10.768Z,101013.31
2023-05-04T15:14:37.830Z,101009.19
2023-05-04T15:17:05.399Z,101012.19
2023-05-04T15:19:32.380Z,101015.00
2023-05-04T15:21:59.312Z,101008.25
2023-05-04T15:24:26.504Z,101011.56
2023-05-04T15:26:53.558Z,101022.56
2023-05-04T15:29:20.502Z,101017.69
2023-05-04T15:31:47.606Z,101018.41
2023-05-04T15:34:16.876Z,101017.16
2023-05-04T15:36:45.137Z,101014.63
2023-05-04T15:39:12.423Z,101021.50
2023-05-04T15:41:39.835Z,101016.47
2023-05-04T15:44:06.920Z,101015.44
2023-05-04T15:46:35.112Z,101018.91
2023-05-04T15:49:02.110Z,101016.91
2023-05-04T15:51:30.753Z,101022.56
2023-05-04T15:53:58.574Z,101017.72
2023-05-04T15:56:25.498Z,101028.34
2023-05-04T15:58:52.688Z,101020.81
2023-05-04T16:01:19.910Z,101027.53
2023-05-04T16:03:47.184Z,101017.09
2023-05-04T16:06:15.607Z,101025.41
2023-05-04T16:08:42.606Z,101024.97
2023-05-04T16:11:09.629Z,101024.38
2023-05-04T16:13:36.833Z,101031.00
2023-05-04T16:16:05.005Z,101019.41
2023-05-04T16:18:32.160Z,101017.50
2023-05-04T16:20:59.100Z,101016.41
2023-05-04T16:23:28.122Z,101014.06
2023-05-04T16:25:55.104Z,101019.78
2023-05-04T16:28:22.172Z,100997.03
2023-05-04T16:30:50.143Z,101008.72
2023-05-04T16:33:17.373Z,101013.38
2023-05-04T16:35:44.329Z,101015.31
2023-05-04T16:38:15.673Z,101017.88
2023-05-04T16:40:43.016Z,101028.72
2023-05-04T16:43:10.590Z,101023.41
2023-05-04T16:45:38.262Z,101030.75
2023-05-04T16:48:06.333Z,101031.22
2023-05-04T16:50:33.679Z,101021.88
2023-05-04T16:53:00.652Z,101020.03
2023-05-04T16:55:27.788Z,101029.13
2023-05-04T16:57:58.349Z,101034.00
2023-05-04T17:00:25.969Z,101031.31
2023-05-04T17:02:53.397Z,101033.69
2023-05-04T17:05:21.057Z,101033.03
2023-05-04T17:07:48.043Z,101038.75
2023-05-04T17:10:15.136Z,101038.97
2023-05-04T17:12:42.650Z,101030.22
2023-05-04T17:15:10.952Z,101034.06
2023-05-04T17:17:38.143Z,101031.91
2023-05-04T17:20:06.758Z,101031.41
2023-05-04T17:22:34.481Z,101032.09
2023-05-04T17:25:01.428Z,101041.25
2023-05-04T17:27:28.382Z,101034.56
2023-05-04T17:29:55.348Z,101038.88
2023-05-04T17:32:22.343Z,101037.09
2023-05-04T17:34:49.324Z,101035.00
2023-05-04T17:37:16.291Z,101039.38
2023-05-04T17:39:43.298Z,101043.00
2023-05-04T17:42:12.215Z,101045.22
2023-05-04T17:44:39.400Z,101049.78
2023-05-04T17:47:06.422Z,101051.56
2023-05-04T17:49:33.496Z,101051.28
2023-05-04T17:52:01.493Z,101060.06
2023-05-04T17:54:28.767Z,101046.91
2023-05-04T17:56:55.823Z,101052.09
2023-05-04T17:59:22.831Z,101044.22
2023-05-04T18:01:49.877Z,101056.47
2023-05-04T18:04:16.871Z,101057.38
2023-05-04T18:06:43.853Z,101054.66
2023-05-04T18:09:11.618Z,101052.66
2023-05-04T18:11:38.567Z,101060.78
2023-05-04T18:14:05.529Z,101061.13
2023-05-04T18:16:36.216Z,101055.13
2023-05-04T18:19:03.248Z,101055.25
2023-05-04T18:21:30.214Z,101067.50
2023-05-04T18:23:57.257Z,101076.06
2023-05-04T18:26:24.337Z,101073.97
2023-05-04T18:28:51.349Z,101077.72
2023-05-04T18:31:19.005Z,101086.47
2023-05-04T18:33:46.014Z,101086.31
2023-05-04T18:36:13.226Z,101084.25
2023-05-04T18:38:40.986Z,101105.72
2023-05-04T18:41:08.044Z,101111.34
2023-05-04T18:43:35.051Z,101116.63
2023-05-04T18:46:08.292Z,101112.16
2023-05-04T18:48:35.437Z,101110.50
2023-05-04T18:51:02.852Z,101115.81
2023-05-04T18:53:30.117Z,101120.13
2023-05-04T18:56:04.508Z,101133.16
2023-05-04T18:58:32.319Z,101143.59
2023-05-04T19:00:59.624Z,101160.75
2023-05-04T19:03:27.419Z,101154.13
2023-05-04T19:05:55.005Z,101147.78
2023-05-04T19:08:22.112Z,101148.59
2023-05-04T19:10:49.882Z,101144.72
2023-05-04T19:13:17.747Z,101139.44
2023-05-04T19:15:45.230Z,101133.63
2023-05-04T19:18:12.304Z,101145.72
2023-05-04T19:20:39.947Z,101145.66
2023-05-04T19:23:06.956Z,101155.66
2023-05-04T19:25:35.088Z,101152.41
2023-05-04T19:28:08.606Z,101157.13
2023-05-04T19:30:37.502Z,101168.19
2023-05-04T19:33:05.830Z,101163.28
2023-05-04T19:35:33.056Z,101167.38
2023-05-04T19:38:01.918Z,101162.50
2023-05-04T19:40:28.966Z,101150.78
2023-05-04T19:42:55.936Z,101154.97
2023-05-04T19:45:22.919Z,101148.59
2023-05-04T19:47:50.767Z,101146.31
2023-05-04T19:50:18.045Z,101152.03
2023-05-04T19:52:45.170Z,101151.84
2023-05-04T19:55:12.623Z,101155.22
2023-05-04T19:57:39.771Z,101159.53
2023-05-04T20:00:09.869Z,101164.78
2023-05-04T20:02:38.221Z,101162.34
2023-05-04T20:05:06.268Z,101156.22
2023-05-04T20:07:33.276Z,101163.16
2023-05-04T20:10:00.394Z,101174.88
2023-05-04T20:12:27.408Z,101180.16
2023-05-04T20:14:54.365Z,101177.50
2023-05-04T20:17:21.453Z,101186.56
2023-05-04T20:19:48.605Z,101178.00
2023-05-04T20:22:16.425Z,101178.53
2023-05-04T20:24:43.463Z,101184.31
2023-05-04T20:27:10.578Z,101191.28
2023-05-04T20:29:37.552Z,101184.16
2023-05-04T20:32:05.624Z,101190.75
2023-05-04T20:34:33.404Z,101194.28
2023-05-04T20:37:00.574Z,101203.81
2023-05-04T20:39:28.076Z,101192.34
2023-05-04T20:41:55.074Z,101199.78
2023-05-04T20:44:22.369Z,101198.47
2023-05-04T20:46:49.393Z,101197.56
2023-05-04T20:49:16.527Z,101194.78
2023-05-04T20:51:43.560Z,101200.16
2023-05-04T20:54:10.569Z,101204.44
2023-05-04T20:56:37.592Z,101203.47
2023-05-04T20:59:04.518Z,101209.44
2023-05-04T21:01:31.529Z,101200.84
2023-05-04T21:03:58.775Z,101202.75
2023-05-04T21:06:25.884Z,101212.03
2023-05-04T21:08:52.832Z,101209.78
2023-05-04T21:11:19.771Z,101208.88
2023-05-04T21:13:46.766Z,101214.84
2023-05-04T21:16:13.923Z,101213.25
2023-05-04T21:18:41.005Z,101208.16
2023-05-04T21:21:08.069Z,101219.88
2023-05-04T21:23:34.991Z,101241.19
2023-05-04T21:26:05.223Z,101258.31
2023-05-04T21:28:32.699Z,101284.28
2023-05-04T21:30:59.886Z,101289.94
2023-05-04T21:33:26.868Z,101292.75
2023-05-04T21:35:53.949Z,101245.75
2023-05-04T21:38:22.000Z,101260.59
2023-05-04T21:40:49.441Z,101309.09
2023-05-04T21:43:16.459Z,101295.69
2023-05-04T21:45:43.428Z,101286.84
2023-05-04T21:48:10.499Z,101291.56
2023-05-04T21:50:37.588Z,101277.41
2023-05-04T21:53:04.569Z,101278.09
2023-05-04T21:55:31.594Z,101270.88
2023-05-04T21:57:58.608Z,101274.44
2023-05-04T22:00:25.923Z,101274.06
2023-05-04T22:02:55.836Z,101280.44
2023-05-04T22:05:23.172Z,101291.00
2023-05-04T22:07:50.469Z,101271.75
2023-05-04T22:10:18.127Z,101264.81
2023-05-04T22:12:45.157Z,101267.75
2023-05-04T22:15:12.274Z,101266.88
2023-05-04T22:17:39.361Z,101271.34
2023-05-04T22:20:07.964Z,101263.88
2023-05-04T22:22:35.763Z,101264.44
2023-05-04T22:25:02.738Z,101271.63
2023-05-04T22:27:30.080Z,101280.41
2023-05-04T22:29:57.273Z,101276.81
2023-05-04T22:32:24.266Z,101276.59
2023-05-04T22:34:51.293Z,101273.53
2023-05-04T22:37:18.236Z,101276.91
2023-05-04T22:39:45.184Z,101269.91
2023-05-04T22:42:12.440Z,101278.31
2023-05-04T22:44:39.599Z,101275.16
2023-05-04T22:47:06.589Z,101271.22
2023-05-04T22:49:33.569Z,101275.66
2023-05-04T22:52:00.852Z,101271.94
2023-05-04T22:54:27.936Z,101276.97
2023-05-04T22:56:54.914Z,101281.34
2023-05-04T22:59:21.919Z,101290.72
2023-05-04T23:01:50.151Z,101286.84
2023-05-04T23:04:17.206Z,101287.22
2023-05-04T23:06:44.254Z,101288.13
2023-05-04T23:09:11.808Z,101291.63
2023-05-04T23:11:38.896Z,101288.22
2023-05-04T23:14:06.140Z,101281.25
2023-05-04T23:16:33.390Z,101290.53
2023-05-04T23:19:00.419Z,101292.78
2023-05-04T23:21:27.432Z,101296.47
2023-05-04T23:23:54.363Z,101298.50
2023-05-04T23:26:21.435Z,101301.63
2023-05-04T23:28:48.605Z,101310.91
2023-05-04T23:31:15.785Z,101321.31
2023-05-04T23:33:43.498Z,101322.56
2023-05-04T23:36:10.493Z,101317.44
2023-05-04T23:38:37.453Z,101310.31
2023-05-04T23:41:04.889Z,101317.19
2023-05-04T23:43:32.114Z,101320.50
2023-05-04T23:46:04.207Z,101323.22
2023-05-04T23:48:32.601Z,101328.91
2023-05-04T23:51:05.787Z,101325.03
2023-05-04T23:53:37.055Z,101311.47
2023-05-04T23:56:06.281Z,101310.47
2023-05-04T23:58:34.568Z,101302.91
